Time;durP1;ratioP1;P1;durP2;ratioP2;P2;SDS_P1;SDS_P2;PMS_P1;PMS_P2;Temp;Humidity;BMP_temperature;BMP_pressure;BME280_temperature;BME280_humidity;BME280_pressure;Samples;Min_cycle;Max_cycle;Signal;HPM_P1;HPM_P2
2021/12/11 00:00:44;;;;;;;74.95;34.30;;;;;;;;;;5073015;28;20107;-65
2021/12/11 00:03:14;;;;;;;81.50;34.42;;;;;;;;;;5072733;28;20024;-65
2021/12/11 00:05:41;;;;;;;80.60;34.47;;;;;;;;;;5072993;28;20108;-66
2021/12/11 00:08:10;;;;;;;82.53;35.75;;;;;;;;;;5054719;28;20532;-65
2021/12/11 00:10:42;;;;;;;81.13;34.08;;;;;;;;;;5072611;28;20016;-65
2021/12/11 00:13:08;;;;;;;;;;;;;;;;;;5055122;28;20024;-64
2021/12/11 00:15:37;;;;;;;76.60;31.92;;;;;;;;;;5072286;28;19951;-64
2021/12/11 00:18:06;;;;;;;88.47;38.03;;;;;;;;;;5072580;28;20094;-64
2021/12/11 00:20:33;;;;;;;91.35;36.42;;;;;;;;;;5072557;28;20123;-64
2021/12/11 00:22:59;;;;;;;122.18;46.63;;;;;;;;;;5072516;28;20074;-64
2021/12/11 00:25:26;;;;;;;96.55;43.35;;;;;;;;;;5054494;28;20422;-65
2021/12/11 00:27:59;;;;;;;113.82;44.67;;;;;;;;;;5072481;28;20032;-64
2021/12/11 00:30:28;;;;;;;115.30;46.53;;;;;;;;;;5072525;28;20053;-64
2021/12/11 00:32:59;;;;;;;109.97;45.33;;;;;;;;;;5054435;28;20035;-65
2021/12/11 00:35:25;;;;;;;98.68;39.22;;;;;;;;;;5072452;28;20027;-65
2021/12/11 00:37:52;;;;;;;86.18;36.13;;;;;;;;;;5072027;28;20119;-63
2021/12/11 00:40:20;;;;;;;90.07;36.10;;;;;;;;;;5076005;28;20407;-63
2021/12/11 00:43:08;;;;;;;72.88;32.25;;;;;;;;;;5075991;28;20476;-65
2021/12/11 00:45:38;;;;;;;80.53;33.42;;;;;;;;;;5057695;28;20021;-64
2021/12/11 00:48:07;;;;;;;72.47;31.75;;;;;;;;;;5075629;28;20467;-64
2021/12/11 00:50:41;;;;;;;81.68;32.35;;;;;;;;;;5075823;28;20123;-64
2021/12/11 00:53:28;;;;;;;81.57;33.20;;;;;;;;;;5075864;28;20476;-65
2021/12/11 00:55:59;;;;;;;85.20;34.45;;;;;;;;;;5075738;28;20090;-64
2021/12/11 00:58:30;;;;;;;69.53;30.63;;;;;;;;;;5075726;28;20033;-64
2021/12/11 01:01:00;;;;;;;66.72;31.15;;;;;;;;;;5075704;28;20124;-64
2021/12/11 01:03:31;;;;;;;72.93;32.92;;;;;;;;;;5075699;28;20024;-64
2021/12/11 01:05:58;;;;;;;76.72;32.47;;;;;;;;;;5075712;28;20533;-65
2021/12/11 01:08:35;;;;;;;85.45;34.50;;;;;;;;;;5075509;28;20033;-64
2021/12/11 01:11:13;;;;;;;84.28;38.55;;;;;;;;;;5075900;28;20028;-64
2021/12/11 01:13:43;;;;;;;81.85;36.45;;;;;;;;;;5075496;28;20020;-64
2021/12/11 01:16:13;;;;;;;88.57;37.55;;;;;;;;;;5075401;28;20033;-64
2021/12/11 01:18:51;;;;;;;83.60;37.58;;;;;;;;;;5075658;28;20107;-65
2021/12/11 01:24:15;;;;;;;73.32;33.80;;;;;;;;;;5075272;28;20037;-65
2021/12/11 01:26:51;;;;;;;87.82;38.05;;;;;;;;;;5075254;28;20377;-64
2021/12/11 01:29:20;;;;;;;90.55;38.38;;;;;;;;;;5057167;28;20028;-63
2021/12/11 01:31:47;;;;;;;109.05;47.50;;;;;;;;;;5075070;28;20103;-64
2021/12/11 01:34:13;;;;;;;106.22;45.90;;;;;;;;;;5075090;28;20021;-64
2021/12/11 01:36:40;;;;;;;96.10;44.30;;;;;;;;;;5075133;28;20035;-64
2021/12/11 01:39:11;;;;;;;105.55;46.78;;;;;;;;;;5075046;28;20427;-64
2021/12/11 01:41:37;;;;;;;95.50;43.63;;;;;;;;;;5056913;28;20393;-63
2021/12/11 01:44:08;;;;;;;77.25;33.38;;;;;;;;;;5056930;28;20436;-63
2021/12/11 01:46:34;;;;;;;72.85;33.15;;;;;;;;;;5074967;28;20037;-64
2021/12/11 01:49:02;;;;;;;76.70;32.75;;;;;;;;;;5074809;28;20078;-65
2021/12/11 01:51:55;;;;;;;70.95;32.97;;;;;;;;;;5055216;28;20052;-65
2021/12/11 01:54:32;;;;;;;69.88;32.25;;;;;;;;;;5052819;28;20075;-64
2021/12/11 01:57:01;;;;;;;78.15;31.40;;;;;;;;;;5074331;28;20395;-64
2021/12/11 01:59:33;;;;;;;72.97;32.17;;;;;;;;;;5074602;28;20029;-63
2021/12/11 02:02:03;;;;;;;72.40;33.30;;;;;;;;;;5074581;28;20027;-63
2021/12/11 02:04:30;;;;;;;63.20;29.13;;;;;;;;;;5056498;28;20024;-64
2021/12/11 02:06:56;;;;;;;64.45;28.98;;;;;;;;;;5074433;28;20484;-62
2021/12/11 02:09:28;;;;;;;70.60;30.45;;;;;;;;;;5074503;28;20027;-63
2021/12/11 02:12:20;;;;;;;74.25;30.58;;;;;;;;;;5074398;28;20465;-63
2021/12/11 02:14:50;;;;;;;68.82;29.98;;;;;;;;;;5052480;28;20025;-63
2021/12/11 02:17:18;;;;;;;74.85;30.83;;;;;;;;;;5056243;28;20041;-64
2021/12/11 02:19:45;;;;;;;66.38;28.92;;;;;;;;;;5056494;28;20426;-63
2021/12/11 02:22:13;;;;;;;63.90;28.33;;;;;;;;;;5074137;28;20111;-65
2021/12/11 02:24:48;;;;;;;65.35;29.80;;;;;;;;;;5073800;28;20350;-63
2021/12/11 02:27:23;;;;;;;63.78;28.17;;;;;;;;;;5074096;28;20040;-63
2021/12/11 02:30:15;;;;;;;58.35;26.75;;;;;;;;;;5074030;28;20070;-63
2021/12/11 02:32:45;;;;;;;60.60;27.75;;;;;;;;;;5073966;28;20035;-63
2021/12/11 02:35:17;;;;;;;74.47;31.60;;;;;;;;;;5073625;28;20059;-63
2021/12/11 02:37:46;;;;;;;70.85;29.15;;;;;;;;;;5055801;28;20055;-63
2021/12/11 02:40:42;;;;;;;75.50;29.55;;;;;;;;;;5073857;28;20033;-63
2021/12/11 02:43:19;;;;;;;75.07;31.20;;;;;;;;;;5056105;28;20119;-63
2021/12/11 02:45:49;;;;;;;76.30;31.25;;;;;;;;;;5073688;28;20028;-63
2021/12/11 02:48:34;;;;;;;79.03;31.42;;;;;;;;;;5073958;28;20051;-63
2021/12/11 02:51:12;;;;;;;67.13;30.10;;;;;;;;;;5073575;28;20052;-63
2021/12/11 02:53:51;;;;;;;80.03;32.60;;;;;;;;;;5055631;28;20027;-63
2021/12/11 02:56:27;;;;;;;76.82;32.55;;;;;;;;;;5073471;28;20077;-63
2021/12/11 02:58:56;;;;;;;75.85;32.03;;;;;;;;;;5055553;28;20020;-63
2021/12/11 03:01:27;;;;;;;76.95;30.85;;;;;;;;;;5073165;28;20035;-63
2021/12/11 03:04:01;;;;;;;75.70;33.10;;;;;;;;;;5073475;28;20025;-62
2021/12/11 03:06:36;;;;;;;73.30;30.98;;;;;;;;;;5073362;28;20021;-63
2021/12/11 03:09:03;;;;;;;69.63;29.83;;;;;;;;;;5073385;28;20114;-63
2021/12/11 03:11:30;;;;;;;69.03;29.10;;;;;;;;;;5054995;28;20016;-62
2021/12/11 03:13:57;;;;;;;80.20;31.40;;;;;;;;;;5073234;28;20024;-63
2021/12/11 03:16:25;;;;;;;76.20;29.60;;;;;;;;;;5073194;28;20028;-63
2021/12/11 03:18:51;;;;;;;74.88;29.88;;;;;;;;;;5073165;28;20025;-63
2021/12/11 03:21:18;;;;;;;78.50;30.65;;;;;;;;;;5073213;28;20107;-63
2021/12/11 03:23:45;;;;;;;83.30;30.92;;;;;;;;;;5055135;28;20187;-63
2021/12/11 03:26:11;;;;;;;83.70;30.45;;;;;;;;;;5073087;28;20035;-62
2021/12/11 03:28:38;;;;;;;74.00;28.17;;;;;;;;;;5072787;28;20426;-63
2021/12/11 03:31:06;;;;;;;72.55;29.65;;;;;;;;;;5054853;28;20033;-63
2021/12/11 03:33:35;;;;;;;72.13;29.85;;;;;;;;;;5072790;28;20039;-63
2021/12/11 03:36:02;;;;;;;76.55;30.35;;;;;;;;;;5072936;28;20068;-63
2021/12/11 03:38:29;;;;;;;77.40;30.02;;;;;;;;;;5073025;28;20496;-63
2021/12/11 03:40:55;;;;;;;87.30;30.40;;;;;;;;;;5072699;28;20134;-63
2021/12/11 03:43:23;;;;;;;84.22;33.35;;;;;;;;;;5072933;28;20032;-65
2021/12/11 03:45:52;;;;;;;82.65;32.17;;;;;;;;;;5072935;28;20060;-64
2021/12/11 03:48:22;;;;;;;90.13;34.40;;;;;;;;;;5073254;28;20533;-65
2021/12/11 03:50:48;;;;;;;90.63;34.53;;;;;;;;;;5054548;28;20484;-65
2021/12/11 03:53:16;;;;;;;93.18;34.58;;;;;;;;;;5072806;28;20469;-63
2021/12/11 03:55:44;;;;;;;90.05;34.47;;;;;;;;;;5072794;28;20035;-62
2021/12/11 03:58:11;;;;;;;96.40;35.67;;;;;;;;;;5072495;28;20024;-63
2021/12/11 04:00:42;;;;;;;100.13;36.33;;;;;;;;;;5054831;28;20111;-62
2021/12/11 04:03:11;;;;;;;88.57;35.78;;;;;;;;;;5072603;28;20025;-64
2021/12/11 04:05:40;;;;;;;91.50;35.38;;;;;;;;;;5054703;28;20513;-63
2021/12/11 04:08:08;;;;;;;97.03;35.83;;;;;;;;;;5054770;28;20025;-63
2021/12/11 04:10:34;;;;;;;95.63;36.15;;;;;;;;;;5054373;28;20021;-63
2021/12/11 04:13:02;;;;;;;88.03;33.90;;;;;;;;;;5072811;28;20059;-63
2021/12/11 04:15:29;;;;;;;87.13;35.13;;;;;;;;;;5076568;28;20475;-63
2021/12/11 04:17:55;;;;;;;95.18;33.75;;;;;;;;;;5058478;28;20148;-63
2021/12/11 04:20:23;;;;;;;79.38;32.25;;;;;;;;;;5058500;28;20111;-63
2021/12/11 04:22:49;;;;;;;81.78;32.95;;;;;;;;;;5076413;28;20032;-64
2021/12/11 04:25:17;;;;;;;77.80;32.08;;;;;;;;;;5076037;28;20381;-63
2021/12/11 04:27:43;;;;;;;85.95;34.72;;;;;;;;;;5076305;28;20082;-63
2021/12/11 04:30:11;;;;;;;78.57;31.17;;;;;;;;;;5058344;28;20032;-66
2021/12/11 04:32:39;;;;;;;82.88;31.77;;;;;;;;;;5058019;28;20025;-65
2021/12/11 04:35:07;;;;;;;82.95;31.85;;;;;;;;;;5076191;28;20059;-65
2021/12/11 04:37:33;;;;;;;83.47;33.65;;;;;;;;;;5058105;28;20116;-64
2021/12/11 04:40:04;;;;;;;96.50;34.67;;;;;;;;;;5076087;28;20085;-63
2021/12/11 04:45:25;;;;;;;97.88;35.80;;;;;;;;;;5076033;28;20029;-63
2021/12/11 04:48:10;;;;;;;97.90;35.45;;;;;;;;;;5075986;28;20488;-63
2021/12/11 04:50:59;;;;;;;103.22;37.00;;;;;;;;;;5075834;28;20048;-65
2021/12/11 04:56:25;;;;;;;89.88;34.38;;;;;;;;;;5075742;28;20133;-64
2021/12/11 05:01:44;;;;;;;95.38;34.83;;;;;;;;;;5075535;28;20053;-64
2021/12/11 05:06:50;;;;;;;103.63;37.97;;;;;;;;;;5075623;28;20032;-65
2021/12/11 05:09:27;;;;;;;113.57;38.40;;;;;;;;;;5075588;28;20020;-64
2021/12/11 05:12:32;;;;;;;111.55;39.20;;;;;;;;;;5075563;28;20082;-64
2021/12/11 05:14:59;;;;;;;112.22;38.65;;;;;;;;;;5075472;28;20028;-65
2021/12/11 05:17:25;;;;;;;108.22;38.28;;;;;;;;;;5075031;28;20116;-64
2021/12/11 05:19:52;;;;;;;102.00;37.20;;;;;;;;;;5057349;28;20533;-64
2021/12/11 05:22:18;;;;;;;110.75;37.15;;;;;;;;;;5075628;28;20108;-64
2021/12/11 05:24:46;;;;;;;107.38;38.78;;;;;;;;;;5075253;28;20052;-65
2021/12/11 05:27:13;;;;;;;113.72;39.88;;;;;;;;;;5057222;28;20048;-65
2021/12/11 05:29:39;;;;;;;100.93;37.50;;;;;;;;;;5075174;28;20035;-66
2021/12/11 05:32:07;;;;;;;101.25;36.40;;;;;;;;;;5074899;28;20044;-64
2021/12/11 05:34:33;;;;;;;104.05;34.63;;;;;;;;;;5057099;28;20028;-64
2021/12/11 05:37:00;;;;;;;105.65;37.08;;;;;;;;;;5056966;28;20043;-66
2021/12/11 05:39:26;;;;;;;115.95;38.05;;;;;;;;;;5075060;28;20024;-64
2021/12/11 05:41:53;;;;;;;108.53;37.70;;;;;;;;;;5075029;28;20112;-65
2021/12/11 05:44:20;;;;;;;113.70;39.42;;;;;;;;;;5056956;28;20067;-65
2021/12/11 05:46:47;;;;;;;118.88;40.72;;;;;;;;;;5056842;28;20088;-65
2021/12/11 05:49:14;;;;;;;107.43;38.28;;;;;;;;;;5074829;28;20099;-64
2021/12/11 05:51:41;;;;;;;116.03;39.72;;;;;;;;;;5074923;28;20049;-65
2021/12/11 05:54:09;;;;;;;109.72;39.92;;;;;;;;;;5056724;28;20116;-64
2021/12/11 05:56:37;;;;;;;103.60;37.28;;;;;;;;;;5074534;28;20059;-64
2021/12/11 05:59:09;;;;;;;93.53;34.53;;;;;;;;;;5074610;28;20024;-65
2021/12/11 06:01:38;;;;;;;80.07;30.70;;;;;;;;;;5056627;28;20036;-63
2021/12/11 06:04:11;;;;;;;81.97;30.95;;;;;;;;;;5074437;28;20025;-63
2021/12/11 06:06:37;;;;;;;84.10;32.40;;;;;;;;;;5074455;28;20025;-63
2021/12/11 06:09:08;;;;;;;78.38;32.10;;;;;;;;;;5074324;28;20063;-63
2021/12/11 06:11:35;;;;;;;90.57;34.57;;;;;;;;;;5074437;28;20024;-63
2021/12/11 06:14:02;;;;;;;94.13;37.80;;;;;;;;;;5071205;28;20092;-63
2021/12/11 06:16:28;;;;;;;102.10;39.53;;;;;;;;;;5073936;28;20449;-63
2021/12/11 06:18:54;;;;;;;95.10;38.03;;;;;;;;;;5074122;28;20040;-63
2021/12/11 06:21:21;;;;;;;87.45;37.95;;;;;;;;;;5073992;28;20020;-63
2021/12/11 06:23:47;;;;;;;82.35;35.63;;;;;;;;;;5073900;28;20380;-63
2021/12/11 06:26:13;;;;;;;88.32;36.65;;;;;;;;;;5055898;28;20033;-63
2021/12/11 06:28:40;;;;;;;76.72;33.63;;;;;;;;;;5073973;28;20024;-63
2021/12/11 06:31:06;;;;;;;77.60;34.65;;;;;;;;;;5055976;28;20028;-63
2021/12/11 06:33:33;;;;;;;75.40;35.08;;;;;;;;;;5073747;28;20056;-63
2021/12/11 06:36:03;;;;;;;71.18;34.30;;;;;;;;;;5055062;28;20082;-63
2021/12/11 06:38:31;;;;;;;71.15;34.15;;;;;;;;;;5073735;28;20075;-63
2021/12/11 06:40:57;;;;;;;69.88;34.97;;;;;;;;;;5073653;28;20038;-63
2021/12/11 06:43:24;;;;;;;71.10;34.60;;;;;;;;;;5073611;28;20413;-63
2021/12/11 06:45:50;;;;;;;64.60;33.08;;;;;;;;;;5055340;28;20032;-63
2021/12/11 06:48:17;;;;;;;62.53;31.98;;;;;;;;;;5073483;28;20035;-63
2021/12/11 06:50:45;;;;;;;64.13;30.05;;;;;;;;;;5051970;28;20103;-63
2021/12/11 06:53:18;;;;;;;50.92;28.73;;;;;;;;;;5053493;28;20025;-63
2021/12/11 06:55:44;;;;;;;51.55;27.15;;;;;;;;;;5052174;28;20469;-63
2021/12/11 06:58:10;;;;;;;49.55;26.45;;;;;;;;;;5052005;28;20033;-63
2021/12/11 07:00:37;;;;;;;48.53;27.35;;;;;;;;;;5052821;28;20155;-64
2021/12/11 07:03:03;;;;;;;55.00;29.88;;;;;;;;;;5051376;28;20037;-63
2021/12/11 07:05:30;;;;;;;60.97;35.63;;;;;;;;;;5053244;28;20104;-63
2021/12/11 07:07:56;;;;;;;55.15;29.73;;;;;;;;;;5053277;28;20033;-64
2021/12/11 07:10:23;;;;;;;42.40;25.40;;;;;;;;;;5053027;28;20025;-64
2021/12/11 07:12:50;;;;;;;46.33;27.13;;;;;;;;;;5053186;28;20029;-64
2021/12/11 07:15:18;;;;;;;45.35;27.50;;;;;;;;;;5052831;28;20028;-63
2021/12/11 07:17:44;;;;;;;45.00;28.25;;;;;;;;;;5051851;28;20037;-64
2021/12/11 07:20:12;;;;;;;43.95;26.15;;;;;;;;;;5053401;28;20509;-64
2021/12/11 07:22:41;;;;;;;42.63;25.27;;;;;;;;;;5053085;28;20074;-64
2021/12/11 07:25:11;;;;;;;44.05;25.98;;;;;;;;;;5053018;28;20025;-64
2021/12/11 07:27:37;;;;;;;44.30;26.40;;;;;;;;;;5052897;28;20029;-64
2021/12/11 07:30:04;;;;;;;40.25;24.52;;;;;;;;;;5052736;28;20111;-62
2021/12/11 07:32:30;;;;;;;42.55;24.77;;;;;;;;;;5051753;28;20025;-63
2021/12/11 07:34:56;;;;;;;43.33;24.77;;;;;;;;;;5052919;28;20049;-63
2021/12/11 07:37:23;;;;;;;37.28;22.38;;;;;;;;;;5051383;28;20047;-63
2021/12/11 07:39:49;;;;;;;43.53;22.67;;;;;;;;;;5052807;28;20027;-63
2021/12/11 07:42:15;;;;;;;38.47;22.25;;;;;;;;;;5051549;28;20037;-64
2021/12/11 07:44:41;;;;;;;34.15;21.55;;;;;;;;;;5052818;28;20078;-63
2021/12/11 07:47:08;;;;;;;32.75;22.20;;;;;;;;;;5053058;28;20100;-63
2021/12/11 07:49:34;;;;;;;31.35;21.45;;;;;;;;;;5056492;28;20025;-63
2021/12/11 07:52:01;;;;;;;33.08;21.30;;;;;;;;;;5076957;28;20021;-63
2021/12/11 07:54:27;;;;;;;33.88;21.02;;;;;;;;;;5058781;28;20480;-63
2021/12/11 07:56:54;;;;;;;33.28;20.83;;;;;;;;;;5073006;28;20484;-62
2021/12/11 07:59:20;;;;;;;33.35;20.15;;;;;;;;;;5076387;28;20029;-62
2021/12/11 08:01:51;;;;;;;32.80;20.30;;;;;;;;;;5058444;28;20029;-61
2021/12/11 08:04:17;;;;;;;27.92;18.08;;;;;;;;;;5076580;28;20032;-62
2021/12/11 08:06:43;;;;;;;26.70;17.35;;;;;;;;;;5076642;28;20033;-62
2021/12/11 08:09:13;;;;;;;24.52;16.70;;;;;;;;;;5076566;28;20108;-62
2021/12/11 08:11:39;;;;;;;26.02;17.17;;;;;;;;;;5076336;28;20037;-62
2021/12/11 08:14:06;;;;;;;28.60;17.55;;;;;;;;;;5058612;28;20060;-62
2021/12/11 08:16:36;;;;;;;35.45;20.08;;;;;;;;;;5076389;28;20036;-62
2021/12/11 08:19:03;;;;;;;27.35;17.70;;;;;;;;;;5076339;28;20024;-63
2021/12/11 08:21:31;;;;;;;25.90;17.25;;;;;;;;;;5076506;28;20028;-62
2021/12/11 08:24:04;;;;;;;28.63;16.17;;;;;;;;;;5076059;28;20044;-62
2021/12/11 08:26:30;;;;;;;35.47;20.52;;;;;;;;;;5076436;28;20025;-67
2021/12/11 08:28:56;;;;;;;33.33;20.73;;;;;;;;;;5058329;28;20127;-63
2021/12/11 08:31:23;;;;;;;29.17;18.73;;;;;;;;;;5075271;28;20099;-63
2021/12/11 08:33:49;;;;;;;74.43;45.70;;;;;;;;;;5057814;28;20032;-65
2021/12/11 08:36:16;;;;;;;71.10;40.20;;;;;;;;;;5057996;28;20028;-62
2021/12/11 08:38:42;;;;;;;47.90;25.23;;;;;;;;;;5076353;28;20107;-63
2021/12/11 08:41:10;;;;;;;48.47;25.40;;;;;;;;;;5075328;28;20108;-63
2021/12/11 08:43:37;;;;;;;54.10;29.48;;;;;;;;;;5075578;28;20111;-64
2021/12/11 08:46:22;;;;;;;53.90;27.95;;;;;;;;;;5075146;28;20025;-65
2021/12/11 08:48:49;;;;;;;37.25;18.67;;;;;;;;;;5057290;28;20166;-62
2021/12/11 08:51:18;;;;;;;41.03;22.75;;;;;;;;;;5053864;28;20525;-62
2021/12/11 08:53:44;;;;;;;50.20;30.15;;;;;;;;;;5053803;28;20082;-62
2021/12/11 08:56:11;;;;;;;46.50;26.92;;;;;;;;;;5055308;28;20032;-62
2021/12/11 08:58:38;;;;;;;33.83;22.77;;;;;;;;;;5053752;28;20025;-67
2021/12/11 09:01:11;;;;;;;37.50;21.17;;;;;;;;;;5054423;28;20138;-64
2021/12/11 09:03:42;;;;;;;40.60;24.40;;;;;;;;;;5054492;28;20131;-64
2021/12/11 09:06:21;;;;;;;44.38;26.58;;;;;;;;;;5055191;28;20457;-64
2021/12/11 09:08:53;;;;;;;69.47;36.08;;;;;;;;;;5055619;28;20131;-63
2021/12/11 09:11:29;;;;;;;71.38;37.10;;;;;;;;;;5050177;28;20555;-62
2021/12/11 09:14:02;;;;;;;36.33;21.95;;;;;;;;;;5055289;28;20021;-63
2021/12/11 09:16:35;;;;;;;29.90;18.60;;;;;;;;;;5053870;28;20163;-62
2021/12/11 09:19:08;;;;;;;33.38;19.50;;;;;;;;;;5055298;28;20115;-63
2021/12/11 09:21:40;;;;;;;27.67;18.30;;;;;;;;;;5054201;28;20400;-62
2021/12/11 09:24:23;;;;;;;32.22;18.27;;;;;;;;;;5055249;28;20021;-62
2021/12/11 09:27:07;;;;;;;29.15;17.10;;;;;;;;;;5055224;28;20032;-63
2021/12/11 09:29:36;;;;;;;26.33;17.58;;;;;;;;;;5053783;28;20378;-62
2021/12/11 09:32:15;;;;;;;21.45;14.75;;;;;;;;;;5054647;28;20043;-62
2021/12/11 09:34:53;;;;;;;25.60;15.55;;;;;;;;;;5054379;28;20068;-63
2021/12/11 09:37:20;;;;;;;24.90;14.85;;;;;;;;;;5053971;28;20079;-62
2021/12/11 09:39:54;;;;;;;24.77;14.65;;;;;;;;;;5052876;28;20121;-62
2021/12/11 09:42:21;;;;;;;22.58;13.57;;;;;;;;;;5052761;28;20373;-62
2021/12/11 09:44:47;;;;;;;22.13;13.88;;;;;;;;;;5054299;28;20466;-62
2021/12/11 09:47:19;;;;;;;24.30;14.43;;;;;;;;;;5054821;28;20040;-62
2021/12/11 09:49:52;;;;;;;29.95;16.08;;;;;;;;;;5056320;28;20095;-62
2021/12/11 09:52:23;;;;;;;24.75;16.17;;;;;;;;;;5056824;28;20029;-62
2021/12/11 09:54:55;;;;;;;23.23;14.77;;;;;;;;;;5074743;28;20021;-62
2021/12/11 09:57:23;;;;;;;30.00;16.48;;;;;;;;;;5074605;28;20035;-62
2021/12/11 09:59:51;;;;;;;26.45;16.15;;;;;;;;;;5074532;28;20055;-62
2021/12/11 10:02:35;;;;;;;27.98;17.42;;;;;;;;;;5074377;28;20029;-62
2021/12/11 10:05:28;;;;;;;27.67;17.83;;;;;;;;;;5056550;28;20465;-62
2021/12/11 10:08:24;;;;;;;29.30;18.73;;;;;;;;;;5056518;28;20021;-62
2021/12/11 10:10:47;;;;;;;27.65;16.20;;;;;;;;;;5073312;28;20028;-62
2021/12/11 10:13:14;;;;;;;29.63;16.52;;;;;;;;;;5074179;28;20108;-62
2021/12/11 10:15:41;;;;;;;31.55;17.13;;;;;;;;;;5056285;28;20034;-62
2021/12/11 10:18:10;;;;;;;26.00;17.17;;;;;;;;;;5074141;28;20040;-62
2021/12/11 10:20:45;;;;;;;27.35;16.67;;;;;;;;;;5056131;28;20115;-63
2021/12/11 10:23:12;;;;;;;22.83;14.70;;;;;;;;;;5074113;28;20461;-62
2021/12/11 10:25:41;;;;;;;26.40;13.85;;;;;;;;;;5074114;28;20108;-62
2021/12/11 10:28:10;;;;;;;23.38;14.45;;;;;;;;;;5071264;28;20029;-61
2021/12/11 10:30:41;;;;;;;24.98;14.57;;;;;;;;;;5072600;28;20029;-62
2021/12/11 10:33:08;;;;;;;23.77;15.25;;;;;;;;;;5073338;28;20020;-61
2021/12/11 10:35:36;;;;;;;29.05;13.95;;;;;;;;;;5073521;28;20104;-61
2021/12/11 10:38:05;;;;;;;23.90;15.23;;;;;;;;;;5055653;28;20126;-61
2021/12/11 10:40:33;;;;;;;22.38;14.43;;;;;;;;;;5073678;28;20020;-61
2021/12/11 10:43:02;;;;;;;24.45;14.40;;;;;;;;;;5073549;28;20016;-62
2021/12/11 10:45:29;;;;;;;22.30;14.38;;;;;;;;;;5055678;28;20189;-62
2021/12/11 10:47:57;;;;;;;24.90;16.08;;;;;;;;;;5073664;28;20040;-62
2021/12/11 10:50:28;;;;;;;26.20;16.92;;;;;;;;;;5045015;28;20049;-62
2021/12/11 10:52:54;;;;;;;29.23;18.67;;;;;;;;;;5033603;28;20091;-62
2021/12/11 10:55:23;;;;;;;25.48;15.85;;;;;;;;;;5033669;28;20026;-61
2021/12/11 10:57:51;;;;;;;25.35;14.95;;;;;;;;;;5033319;28;20505;-62
2021/12/11 11:00:30;;;;;;;25.88;16.17;;;;;;;;;;5033221;28;20084;-62
2021/12/11 11:02:57;;;;;;;25.35;16.27;;;;;;;;;;5033080;28;20446;-62
2021/12/11 11:05:24;;;;;;;26.60;16.65;;;;;;;;;;5033139;28;20032;-62
2021/12/11 11:07:50;;;;;;;24.02;15.23;;;;;;;;;;5031446;28;20083;-63
2021/12/11 11:10:19;;;;;;;28.63;17.73;;;;;;;;;;5032377;28;20189;-63
2021/12/11 11:12:47;;;;;;;31.90;18.17;;;;;;;;;;5033179;28;20034;-62
2021/12/11 11:15:14;;;;;;;29.27;17.40;;;;;;;;;;5033145;28;20021;-62
2021/12/11 11:17:40;;;;;;;28.17;16.92;;;;;;;;;;5030715;28;20034;-62
2021/12/11 11:20:09;;;;;;;28.55;16.95;;;;;;;;;;5033065;28;20028;-62
2021/12/11 11:22:36;;;;;;;43.80;19.33;;;;;;;;;;5032989;28;20029;-63
2021/12/11 11:25:10;;;;;;;61.45;37.22;;;;;;;;;;5031951;28;20181;-62
2021/12/11 11:27:37;;;;;;;23.85;15.38;;;;;;;;;;5033462;28;20515;-62
2021/12/11 11:30:06;;;;;;;19.63;12.10;;;;;;;;;;5029800;28;20477;-62
2021/12/11 11:32:32;;;;;;;20.02;12.93;;;;;;;;;;5032559;28;20466;-63
2021/12/11 11:35:03;;;;;;;21.65;13.00;;;;;;;;;;5031015;28;20366;-63
2021/12/11 11:37:29;;;;;;;24.73;14.77;;;;;;;;;;5032026;28;20033;-62
2021/12/11 11:39:55;;;;;;;26.42;14.10;;;;;;;;;;5031201;28;20367;-63
2021/12/11 11:42:22;;;;;;;34.03;21.38;;;;;;;;;;5032922;28;20104;-63
2021/12/11 11:44:49;;;;;;;54.33;32.53;;;;;;;;;;5031443;28;20534;-63
2021/12/11 11:47:17;;;;;;;58.40;37.92;;;;;;;;;;5030657;28;20482;-63
2021/12/11 11:49:43;;;;;;;53.80;39.10;;;;;;;;;;5035159;28;20034;-63
2021/12/11 11:52:14;;;;;;;37.67;29.35;;;;;;;;;;5072808;28;20025;-63
2021/12/11 11:54:42;;;;;;;34.38;22.38;;;;;;;;;;5072919;28;20044;-63
2021/12/11 11:57:32;;;;;;;31.77;18.88;;;;;;;;;;5072732;28;20036;-62
2021/12/11 11:59:59;;;;;;;28.92;17.33;;;;;;;;;;5044249;28;20562;-62
2021/12/11 12:02:26;;;;;;;30.92;19.67;;;;;;;;;;5072738;28;20020;-63
2021/12/11 12:04:53;;;;;;;31.13;18.55;;;;;;;;;;5072689;28;20020;-64
2021/12/11 12:07:25;;;;;;;31.30;18.23;;;;;;;;;;5054706;28;20056;-64
2021/12/11 12:09:52;;;;;;;32.35;19.63;;;;;;;;;;5072749;28;20013;-63
2021/12/11 12:12:22;;;;;;;36.30;19.23;;;;;;;;;;5072187;28;20384;-64
2021/12/11 12:14:48;;;;;;;31.48;17.73;;;;;;;;;;5072945;28;20440;-64
2021/12/11 12:17:16;;;;;;;32.05;19.42;;;;;;;;;;5054261;28;20041;-63
2021/12/11 12:19:43;;;;;;;33.00;18.88;;;;;;;;;;5072469;28;20047;-64
2021/12/11 12:22:10;;;;;;;33.00;19.35;;;;;;;;;;5072549;28;20154;-62
2021/12/11 12:24:39;;;;;;;38.10;21.05;;;;;;;;;;5054278;28;20017;-62
2021/12/11 12:27:07;;;;;;;34.00;21.50;;;;;;;;;;5072489;28;20081;-62
2021/12/11 12:29:35;;;;;;;35.70;21.05;;;;;;;;;;5072215;28;20118;-62
2021/12/11 12:32:22;;;;;;;33.08;20.02;;;;;;;;;;5072391;28;20047;-63
2021/12/11 12:34:49;;;;;;;35.22;19.42;;;;;;;;;;5073709;28;20024;-62
2021/12/11 12:37:16;;;;;;;38.20;20.52;;;;;;;;;;5076117;28;20143;-62
2021/12/11 12:39:46;;;;;;;33.55;19.15;;;;;;;;;;5076077;28;20056;-62
2021/12/11 12:42:36;;;;;;;29.80;19.08;;;;;;;;;;5076019;28;20113;-62
2021/12/11 12:45:29;;;;;;;54.75;30.75;;;;;;;;;;5075968;28;20028;-62
2021/12/11 12:47:59;;;;;;;39.88;24.02;;;;;;;;;;5071472;28;20435;-62
2021/12/11 12:50:28;;;;;;;30.73;18.20;;;;;;;;;;5075622;28;20044;-62
2021/12/11 12:52:56;;;;;;;30.23;17.88;;;;;;;;;;5075848;28;20025;-62
2021/12/11 12:55:25;;;;;;;37.17;20.02;;;;;;;;;;5075854;28;20020;-63
2021/12/11 12:57:53;;;;;;;31.25;19.90;;;;;;;;;;5075761;28;20123;-62
2021/12/11 13:00:25;;;;;;;33.95;21.35;;;;;;;;;;5075901;28;20032;-62
2021/12/11 13:02:53;;;;;;;31.05;18.60;;;;;;;;;;5075653;28;20047;-62
2021/12/11 13:05:24;;;;;;;31.58;20.13;;;;;;;;;;5075646;28;20028;-62
2021/12/11 13:07:51;;;;;;;41.78;22.88;;;;;;;;;;5075691;28;20031;-62
2021/12/11 13:10:20;;;;;;;38.92;21.38;;;;;;;;;;5075533;28;20035;-62
2021/12/11 13:12:47;;;;;;;78.22;32.58;;;;;;;;;;5075485;28;20032;-62
2021/12/11 13:15:18;;;;;;;43.10;24.55;;;;;;;;;;5075551;28;20033;-62
2021/12/11 13:17:46;;;;;;;47.70;28.35;;;;;;;;;;5075545;28;20036;-62
2021/12/11 13:20:18;;;;;;;59.63;29.63;;;;;;;;;;5068562;28;20474;-62
2021/12/11 13:22:46;;;;;;;120.53;45.47;;;;;;;;;;5074802;28;20150;-62
2021/12/11 13:25:23;;;;;;;90.10;36.85;;;;;;;;;;5074872;28;20021;-62
2021/12/11 13:27:52;;;;;;;76.63;30.48;;;;;;;;;;5074944;28;20404;-62
2021/12/11 13:30:21;;;;;;;121.78;42.10;;;;;;;;;;5056803;28;20021;-62
2021/12/11 13:32:48;;;;;;;164.90;51.47;;;;;;;;;;5075096;28;20021;-62
2021/12/11 13:35:20;;;;;;;123.43;47.67;;;;;;;;;;5074993;28;20452;-62
2021/12/11 13:37:47;;;;;;;153.38;56.00;;;;;;;;;;5075092;28;20096;-62
2021/12/11 13:40:15;;;;;;;71.18;36.75;;;;;;;;;;5074336;28;20041;-62
2021/12/11 13:42:42;;;;;;;63.85;32.67;;;;;;;;;;5072769;28;20032;-62
2021/12/11 13:45:11;;;;;;;62.95;29.55;;;;;;;;;;5073952;28;20111;-62
2021/12/11 13:47:38;;;;;;;70.18;33.97;;;;;;;;;;5072221;28;20469;-61
2021/12/11 13:50:08;;;;;;;51.97;29.00;;;;;;;;;;5052487;28;20073;-62
2021/12/11 13:52:34;;;;;;;32.35;18.25;;;;;;;;;;5041120;28;20381;-62
2021/12/11 13:55:00;;;;;;;31.25;18.83;;;;;;;;;;5034474;28;20382;-61
2021/12/11 13:57:27;;;;;;;29.20;17.88;;;;;;;;;;5034393;28;20064;-61
2021/12/11 13:59:58;;;;;;;27.48;16.80;;;;;;;;;;5034582;28;20033;-62
2021/12/11 14:02:25;;;;;;;28.52;15.90;;;;;;;;;;5034435;28;20030;-61
2021/12/11 14:04:52;;;;;;;27.10;15.77;;;;;;;;;;5034378;28;20024;-62
2021/12/11 14:07:20;;;;;;;24.60;15.27;;;;;;;;;;5033599;28;20033;-62
2021/12/11 14:09:51;;;;;;;27.83;16.42;;;;;;;;;;5034630;28;20113;-62
2021/12/11 14:12:18;;;;;;;27.77;15.83;;;;;;;;;;5032940;28;20033;-62
2021/12/11 14:14:44;;;;;;;25.90;16.75;;;;;;;;;;5033162;28;20400;-62
2021/12/11 14:17:11;;;;;;;27.70;17.38;;;;;;;;;;5034084;28;20075;-62
2021/12/11 14:19:37;;;;;;;30.88;17.85;;;;;;;;;;5033887;28;20024;-62
2021/12/11 14:22:05;;;;;;;26.60;16.38;;;;;;;;;;5032783;28;20429;-62
2021/12/11 14:24:32;;;;;;;33.60;18.25;;;;;;;;;;5034083;28;20087;-62
2021/12/11 14:27:02;;;;;;;30.75;18.40;;;;;;;;;;5034193;28;20108;-62
2021/12/11 14:29:28;;;;;;;31.88;20.10;;;;;;;;;;5033912;28;20124;-62
2021/12/11 14:31:55;;;;;;;31.85;19.45;;;;;;;;;;5034034;28;20081;-62
2021/12/11 14:34:21;;;;;;;33.97;20.52;;;;;;;;;;5032634;28;20073;-63
2021/12/11 14:36:47;;;;;;;29.67;17.73;;;;;;;;;;5033086;28;20371;-62
2021/12/11 14:39:17;;;;;;;28.23;16.58;;;;;;;;;;5038102;28;20024;-62
2021/12/11 14:41:46;;;;;;;29.13;16.73;;;;;;;;;;5050318;28;20476;-62
2021/12/11 14:44:17;;;;;;;29.08;17.10;;;;;;;;;;5032511;28;20029;-62